Time;durP1;ratioP1;P1;durP2;ratioP2;P2;SDS_P1;SDS_P2;PMS_P1;PMS_P2;Temp;Humidity;BMP_temperature;BMP_pressure;BME280_temperature;BME280_humidity;BME280_pressure;Samples;Min_cycle;Max_cycle;Signal;HPM_P1;HPM_P2
2022/02/16 00:01:10;;;;;;;4.13;1.27;;;;;;;2.95;100.00;98767.59;5014518;28;20045;-83
2022/02/16 00:03:38;;;;;;;3.78;1.55;;;;;;;3.05;100.00;98779.16;5013243;28;20042;-83
2022/02/16 00:06:05;;;;;;;2.50;1.40;;;;;;;2.95;100.00;98764.91;5012997;28;20572;-84
2022/02/16 00:08:31;;;;;;;2.03;1.17;;;;;;;2.97;100.00;98771.81;5014443;28;20485;-84
2022/02/16 00:11:00;;;;;;;1.77;1.63;;;;;;;3.00;100.00;98763.47;5018202;28;20053;-84
2022/02/16 00:13:27;;;;;;;6.35;1.67;;;;;;;2.97;100.00;98762.94;5013813;28;20062;-83
2022/02/16 00:15:55;;;;;;;1.95;1.23;;;;;;;2.88;100.00;98756.59;5013818;28;20054;-83
2022/02/16 00:18:22;;;;;;;2.88;1.38;;;;;;;2.85;100.00;98759.56;5013526;28;20077;-83
2022/02/16 00:20:51;;;;;;;3.30;1.50;;;;;;;3.00;100.00;98776.91;5004623;28;20056;-83
2022/02/16 00:23:22;;;;;;;1.88;1.20;;;;;;;2.99;100.00;98766.31;5013276;28;20045;-84
2022/02/16 00:25:49;;;;;;;1.23;0.95;;;;;;;2.96;100.00;98745.13;5015751;28;20095;-83
2022/02/16 00:28:19;;;;;;;5.32;1.45;;;;;;;2.99;100.00;98766.31;5013428;28;20554;-84
2022/02/16 00:30:50;;;;;;;5.07;1.55;;;;;;;3.03;100.00;98756.09;5013117;28;20066;-83
2022/02/16 00:33:21;;;;;;;4.22;1.08;;;;;;;2.96;100.00;98750.50;5013238;28;20082;-83
2022/02/16 00:35:51;;;;;;;3.65;1.00;;;;;;;2.95;100.00;98754.16;5013665;28;20050;-83
2022/02/16 00:38:21;;;;;;;3.00;1.35;;;;;;;3.07;100.00;98761.06;5013672;28;20137;-83
2022/02/16 00:40:50;;;;;;;1.80;1.10;;;;;;;3.06;100.00;98762.06;5004713;28;20516;-83
2022/02/16 00:43:17;;;;;;;2.20;1.10;;;;;;;3.10;100.00;98743.78;5018500;28;20052;-83
2022/02/16 00:45:47;;;;;;;6.35;1.10;;;;;;;3.07;100.00;98744.94;5013673;28;20053;-83
2022/02/16 00:48:15;;;;;;;2.20;1.08;;;;;;;3.25;100.00;98752.22;5013443;28;20058;-84
2022/02/16 00:50:51;;;;;;;3.72;1.10;;;;;;;3.14;100.00;98729.06;5006437;28;20104;-83
2022/02/16 00:53:21;;;;;;;1.25;1.00;;;;;;;3.17;100.00;98737.69;5012114;28;20054;-83
2022/02/16 00:55:48;;;;;;;;;;;;;;;3.21;100.00;98748.13;5013151;28;20041;-83
2022/02/16 00:58:16;;;;;;;4.30;1.08;;;;;;;3.07;100.00;98725.28;5013790;28;20815;-84
2022/02/16 01:00:49;;;;;;;1.80;1.00;;;;;;;3.10;100.00;98717.78;5009306;28;20046;-83
2022/02/16 01:03:16;;;;;;;1.58;0.73;;;;;;;3.23;100.00;98738.94;5009470;28;20054;-83
2022/02/16 01:05:46;;;;;;;2.40;1.10;;;;;;;3.17;100.00;98718.03;5013475;28;20050;-84
2022/02/16 01:08:16;;;;;;;;;;;;;;;3.25;100.00;98730.72;5009990;28;20801;-83
2022/02/16 01:10:46;;;;;;;3.30;1.25;;;;;;;3.26;100.00;98730.56;5012736;28;20354;-83
2022/02/16 01:13:16;;;;;;;4.85;1.10;;;;;;;3.25;100.00;98738.78;5010874;28;20046;-83
2022/02/16 01:15:48;;;;;;;4.50;1.10;;;;;;;3.16;100.00;98710.97;5011771;28;20050;-83
2022/02/16 01:18:15;;;;;;;4.85;1.15;;;;;;;3.24;100.00;98720.97;5010129;28;20172;-84
2022/02/16 01:20:42;;;;;;;2.47;1.08;;;;;;;3.23;100.00;98713.91;5013162;28;20144;-84
2022/02/16 01:23:16;;;;;;;6.65;0.95;;;;;;;3.25;100.00;98711.91;5012070;28;20386;-84
2022/02/16 01:25:45;;;;;;;5.45;1.17;;;;;;;3.35;100.00;98718.09;5007248;28;20053;-83
2022/02/16 01:28:14;;;;;;;2.35;1.25;;;;;;;3.33;100.00;98703.97;5012384;28;20149;-84
2022/02/16 01:30:41;;;;;;;3.07;1.10;;;;;;;3.35;100.00;98693.91;5010851;28;20064;-84
2022/02/16 01:33:08;;;;;;;2.80;1.20;;;;;;;3.39;100.00;98695.31;5002673;28;20113;-83
2022/02/16 01:35:35;;;;;;;2.22;0.98;;;;;;;3.41;100.00;98695.16;5007818;28;20103;-83
2022/02/16 01:38:05;;;;;;;2.63;1.30;;;;;;;3.35;100.00;98686.69;5011928;28;20552;-83
2022/02/16 01:40:34;;;;;;;6.47;1.38;;;;;;;3.53;100.00;98710.06;5012001;28;20096;-84
2022/02/16 01:43:04;;;;;;;3.92;1.20;;;;;;;3.47;100.00;98697.25;5012074;28;20064;-84
2022/02/16 01:45:37;;;;;;;3.75;1.00;;;;;;;3.59;100.00;98681.75;5011790;28;20092;-83
2022/02/16 01:48:09;;;;;;;1.60;0.85;;;;;;;3.64;100.00;98688.34;5011005;28;20053;-84
2022/02/16 01:50:45;;;;;;;2.30;0.70;;;;;;;3.63;100.00;98677.72;5007186;28;20050;-84
2022/02/16 01:53:12;;;;;;;1.67;0.98;;;;;;;3.64;100.00;98661.44;5007016;28;20195;-84
2022/02/16 01:55:46;;;;;;;4.50;0.82;;;;;;;3.78;100.00;98672.66;5016291;28;20049;-84
2022/02/16 01:58:15;;;;;;;1.90;1.10;;;;;;;3.71;100.00;98659.84;5008380;28;20438;-84
2022/02/16 02:00:47;;;;;;;3.58;0.90;;;;;;;3.74;100.00;98642.56;5002451;28;20138;-84
2022/02/16 02:03:19;;;;;;;5.47;1.27;;;;;;;3.78;100.00;98648.47;5011239;28;20508;-83
2022/02/16 02:05:50;;;;;;;3.35;0.70;;;;;;;3.82;100.00;98639.94;5013917;28;20092;-83
2022/02/16 02:08:21;;;;;;;7.15;1.08;;;;;;;3.86;100.00;98637.81;5011666;28;20046;-84
2022/02/16 02:10:58;;;;;;;3.20;1.30;;;;;;;3.86;100.00;98630.56;5010080;28;20496;-83
2022/02/16 02:13:35;;;;;;;2.45;1.20;;;;;;;3.73;100.00;98632.81;5005395;28;20050;-83
2022/02/16 02:16:05;;;;;;;3.83;1.00;;;;;;;3.72;100.00;98640.03;5011453;28;20386;-83
2022/02/16 02:18:37;;;;;;;3.58;1.15;;;;;;;3.71;100.00;98643.72;5012203;28;20080;-83
2022/02/16 02:21:10;;;;;;;3.92;0.85;;;;;;;3.81;100.00;98627.50;5010943;28;20105;-83
2022/02/16 02:23:38;;;;;;;2.92;0.80;;;;;;;3.77;100.00;98610.00;5011216;28;20053;-83
2022/02/16 02:26:05;;;;;;;1.67;0.93;;;;;;;3.79;100.00;98609.84;5011107;28;20057;-83
2022/02/16 02:28:32;;;;;;;3.17;0.95;;;;;;;3.83;100.00;98613.91;5011284;28;20050;-83
2022/02/16 02:30:59;;;;;;;5.88;0.70;;;;;;;3.82;100.00;98617.59;5008314;28;20145;-83
2022/02/16 02:33:28;;;;;;;2.35;0.70;;;;;;;3.80;100.00;98606.16;5010682;28;20064;-83
2022/02/16 02:35:57;;;;;;;1.75;0.73;;;;;;;3.88;100.00;98611.59;5010818;28;20081;-83
2022/02/16 02:38:26;;;;;;;2.75;0.90;;;;;;;3.82;100.00;98585.31;5011827;28;20958;-83
2022/02/16 02:40:56;;;;;;;1.13;0.80;;;;;;;3.96;100.00;98600.06;5011022;28;20054;-83
2022/02/16 02:43:26;;;;;;;1.30;0.63;;;;;;;3.91;100.00;98592.44;5010113;28;20482;-83
2022/02/16 02:45:54;;;;;;;0.70;0.47;;;;;;;3.86;100.00;98578.66;5010867;28;20133;-83
2022/02/16 02:48:23;;;;;;;0.82;0.80;;;;;;;3.95;100.00;98582.25;5011320;28;20064;-82
2022/02/16 02:51:11;;;;;;;2.60;0.87;;;;;;;3.96;100.00;98565.94;5008802;28;20046;-83
2022/02/16 02:53:40;;;;;;;3.03;0.80;;;;;;;3.84;100.00;98565.34;5010692;28;20293;-83
2022/02/16 02:56:11;;;;;;;4.53;1.05;;;;;;;3.83;100.00;98546.69;5010571;28;20060;-83
2022/02/16 02:58:48;;;;;;;1.45;0.90;;;;;;;3.70;100.00;98550.63;5010844;28;20512;-83
2022/02/16 03:01:15;;;;;;;3.38;0.95;;;;;;;3.78;100.00;98551.69;5009681;28;20054;-82
2022/02/16 03:03:48;;;;;;;1.58;1.33;;;;;;;3.69;100.00;98532.81;5005833;28;20049;-83
2022/02/16 03:06:16;;;;;;;2.53;0.90;;;;;;;3.77;100.00;98533.88;5004183;28;20137;-82
2022/02/16 03:08:49;;;;;;;2.25;0.77;;;;;;;3.79;100.00;98546.13;5010798;28;20096;-83
2022/02/16 03:11:19;;;;;;;3.08;0.60;;;;;;;3.85;100.00;98540.16;5006867;28;20041;-82
2022/02/16 03:13:46;;;;;;;4.55;0.73;;;;;;;3.82;100.00;98535.06;5009466;28;20502;-82
2022/02/16 03:16:13;;;;;;;1.88;0.82;;;;;;;3.90;100.00;98534.31;5009933;28;20089;-82
2022/02/16 03:18:40;;;;;;;1.90;1.30;;;;;;;3.80;100.00;98506.69;5010933;28;20133;-82
2022/02/16 03:21:06;;;;;;;4.50;0.70;;;;;;;3.84;100.00;98530.41;5010805;28;20100;-82
2022/02/16 03:23:33;;;;;;;2.92;0.98;;;;;;;3.79;100.00;98513.88;5014372;28;20112;-82
2022/02/16 03:26:07;;;;;;;2.67;0.65;;;;;;;3.81;100.00;98511.91;5010802;28;20371;-82
2022/02/16 03:28:34;;;;;;;6.32;1.52;;;;;;;3.87;100.00;98526.56;5009254;28;20058;-82
2022/02/16 03:31:01;;;;;;;2.53;0.90;;;;;;;3.87;100.00;98523.88;4992169;28;20058;-82
2022/02/16 03:33:28;;;;;;;2.15;0.90;;;;;;;3.90;100.00;98519.00;5009634;28;20042;-82
2022/02/16 03:35:55;;;;;;;1.85;0.73;;;;;;;3.82;100.00;98510.88;5010512;28;20417;-82
2022/02/16 03:38:22;;;;;;;2.10;0.70;;;;;;;3.86;100.00;98514.94;5012244;28;20049;-82
2022/02/16 03:40:49;;;;;;;0.60;0.60;;;;;;;3.89;100.00;98508.41;5010705;28;20046;-82
2022/02/16 03:43:22;;;;;;;1.13;0.70;;;;;;;3.78;100.00;98490.69;5009668;28;20076;-82
2022/02/16 03:45:58;;;;;;;2.15;0.65;;;;;;;3.88;100.00;98499.50;5013385;28;20046;-82
2022/02/16 03:48:28;;;;;;;4.20;0.60;;;;;;;4.00;100.00;98505.44;5009692;28;20520;-82
2022/02/16 03:50:55;;;;;;;3.70;0.82;;;;;;;4.03;100.00;98504.28;5005142;28;20050;-82
2022/02/16 03:53:23;;;;;;;2.50;0.60;;;;;;;4.05;100.00;98488.81;5003029;28;20443;-82
2022/02/16 03:55:53;;;;;;;0.60;0.60;;;;;;;4.08;100.00;98497.44;5010557;28;20054;-82
2022/02/16 03:58:21;;;;;;;2.33;0.63;;;;;;;3.99;100.00;98489.47;5009544;28;20112;-82
2022/02/16 04:00:48;;;;;;;1.65;1.00;;;;;;;3.99;100.00;98481.41;5008683;28;20081;-82
2022/02/16 04:03:15;;;;;;;0.45;0.40;;;;;;;3.98;100.00;98467.13;5008760;28;20528;-82
2022/02/16 04:05:44;;;;;;;2.20;0.45;;;;;;;4.01;100.00;98471.34;5010257;28;20077;-83
2022/02/16 04:08:11;;;;;;;2.67;0.63;;;;;;;4.06;100.00;98463.63;5010351;28;20058;-82
2022/02/16 04:10:40;;;;;;;1.05;0.50;;;;;;;4.01;100.00;98465.97;5010638;28;20053;-82
2022/02/16 04:13:07;;;;;;;2.17;0.68;;;;;;;4.15;100.00;98475.28;5009185;28;20468;-82
2022/02/16 04:15:36;;;;;;;2.05;0.63;;;;;;;4.12;100.00;98471.03;5010122;28;20449;-82
2022/02/16 04:18:03;;;;;;;0.93;0.50;;;;;;;4.16;100.00;98475.09;5009462;28;20244;-83
2022/02/16 04:20:30;;;;;;;0.50;0.50;;;;;;;4.13;100.00;98464.66;5002296;28;20308;-82
2022/02/16 04:22:57;;;;;;;2.92;0.65;;;;;;;4.15;100.00;98468.03;5002761;28;20053;-82
2022/02/16 04:25:23;;;;;;;1.88;0.57;;;;;;;4.18;100.00;98472.25;5009234;28;20084;-82
2022/02/16 04:27:50;;;;;;;0.57;0.55;;;;;;;4.18;100.00;98474.94;5009850;28;20220;-82
2022/02/16 04:30:17;;;;;;;2.63;0.90;;;;;;;4.15;100.00;98481.47;5010103;28;20425;-83
2022/02/16 04:32:45;;;;;;;1.27;0.68;;;;;;;4.04;100.00;98462.94;5017821;28;20045;-83
2022/02/16 04:35:12;;;;;;;3.38;0.65;;;;;;;4.14;100.00;98481.66;5013428;28;20136;-83
2022/02/16 04:37:39;;;;;;;1.63;0.70;;;;;;;4.11;100.00;98453.25;5013966;28;20054;-84
2022/02/16 04:40:07;;;;;;;4.00;0.88;;;;;;;4.07;100.00;98438.41;5013533;28;20058;-83
2022/02/16 04:42:34;;;;;;;2.25;0.80;;;;;;;4.01;100.00;98429.13;5013021;28;20049;-83
2022/02/16 04:45:01;;;;;;;1.13;0.65;;;;;;;4.01;100.00;98436.38;5012327;28;20077;-83
2022/02/16 04:47:28;;;;;;;1.58;0.60;;;;;;;4.12;100.00;98444.13;5013243;28;20224;-83
2022/02/16 04:49:56;;;;;;;1.40;0.68;;;;;;;4.14;100.00;98441.28;5010333;28;20071;-83
2022/02/16 04:52:22;;;;;;;0.60;0.57;;;;;;;4.11;100.00;98447.84;5012411;28;20068;-82
2022/02/16 04:54:49;;;;;;;1.20;0.60;;;;;;;4.22;100.00;98444.88;5012412;28;20042;-84
2022/02/16 04:57:18;;;;;;;2.78;0.70;;;;;;;4.24;100.00;98429.38;5013541;28;20060;-83
2022/02/16 04:59:44;;;;;;;2.17;0.85;;;;;;;4.24;100.00;98439.31;5008444;28;20452;-83
2022/02/16 05:02:11;;;;;;;1.58;0.93;;;;;;;4.16;100.00;98426.69;5011547;28;20052;-81
2022/02/16 05:04:37;;;;;;;38.10;21.00;;;;;;;4.25;100.00;98414.09;5011973;28;20489;-81
2022/02/16 05:07:06;;;;;;;0.52;0.50;;;;;;;4.24;100.00;98415.09;5013219;28;20128;-83
2022/02/16 05:09:32;;;;;;;0.77;0.68;;;;;;;4.37;100.00;98431.63;5018394;28;20054;-83
2022/02/16 05:12:03;;;;;;;0.40;0.40;;;;;;;4.21;100.00;98400.13;5012199;28;20144;-82
2022/02/16 05:14:29;;;;;;;0.60;0.60;;;;;;;4.32;100.00;98417.84;5011718;28;20501;-83
2022/02/16 05:16:56;;;;;;;1.27;0.70;;;;;;;4.37;100.00;98420.88;5011974;28;20049;-83
2022/02/16 05:19:23;;;;;;;0.57;0.50;;;;;;;4.29;100.00;98403.84;5011964;28;20050;-82
2022/02/16 05:21:49;;;;;;;1.27;0.60;;;;;;;4.33;100.00;98408.75;5012134;28;20053;-83
2022/02/16 05:24:19;;;;;;;0.93;0.57;;;;;;;4.38;100.00;98416.31;5010340;28;20060;-83
2022/02/16 05:26:46;;;;;;;2.10;0.75;;;;;;;4.29;100.00;98404.72;5005824;28;20073;-83
2022/02/16 05:29:13;;;;;;;0.70;0.70;;;;;;;4.37;100.00;98390.44;5012547;28;20061;-83
2022/02/16 05:31:39;;;;;;;0.68;0.60;;;;;;;4.49;100.00;98402.56;5012066;28;20489;-83
2022/02/16 05:34:06;;;;;;;0.40;0.40;;;;;;;4.32;100.00;98380.16;5011923;28;20060;-83
2022/02/16 05:36:33;;;;;;;1.48;0.60;;;;;;;4.42;100.00;98383.53;5013006;28;20077;-83
2022/02/16 05:39:00;;;;;;;2.90;0.63;;;;;;;4.37;100.00;98376.97;5012178;28;20081;-83
2022/02/16 05:41:29;;;;;;;3.85;0.93;;;;;;;4.43;100.00;98374.47;5012883;28;20053;-83
2022/02/16 05:43:56;;;;;;;0.50;0.50;;;;;;;4.38;100.00;98370.56;5009422;28;20089;-83
2022/02/16 05:46:23;;;;;;;0.57;0.47;;;;;;;4.37;100.00;98352.75;5009612;28;20107;-83
2022/02/16 05:48:50;;;;;;;1.05;0.70;;;;;;;4.49;100.00;98370.28;5010655;28;20378;-83
2022/02/16 05:51:16;;;;;;;0.65;0.65;;;;;;;4.51;100.00;98372.78;5011582;28;20421;-83
2022/02/16 05:53:43;;;;;;;0.98;0.80;;;;;;;4.41;100.00;98360.34;5012011;28;20080;-83
2022/02/16 05:56:10;;;;;;;0.85;0.40;;;;;;;4.50;100.00;98366.59;5012030;28;20042;-83
2022/02/16 05:58:38;;;;;;;1.20;0.65;;;;;;;4.42;100.00;98342.31;5011900;28;20128;-83
2022/02/16 06:01:05;;;;;;;1.02;0.60;;;;;;;4.49;100.00;98359.50;5007046;28;20091;-83
2022/02/16 06:03:32;;;;;;;1.50;0.68;;;;;;;4.58;100.00;98361.19;5011345;28;20049;-83
2022/02/16 06:05:58;;;;;;;0.50;0.50;;;;;;;4.54;100.00;98356.31;5011714;28;20046;-83
2022/02/16 06:08:25;;;;;;;0.90;0.60;;;;;;;4.50;100.00;98341.50;5012037;28;20052;-83
2022/02/16 06:10:56;;;;;;;0.60;0.55;;;;;;;4.56;100.00;98355.16;5005840;28;20569;-83
2022/02/16 06:13:23;;;;;;;0.82;0.60;;;;;;;4.50;100.00;98336.97;5008912;28;20049;-83
2022/02/16 06:15:51;;;;;;;1.77;0.60;;;;;;;4.59;100.00;98340.50;5017882;28;20596;-83
2022/02/16 06:18:18;;;;;;;0.73;0.55;;;;;;;4.58;100.00;98342.34;5011104;28;20493;-83
2022/02/16 06:20:44;;;;;;;2.30;0.50;;;;;;;4.53;100.00;98331.25;5011290;28;20048;-83
2022/02/16 06:23:11;;;;;;;0.82;0.30;;;;;;;4.52;100.00;98320.66;5009832;28;20041;-83
2022/02/16 06:25:38;;;;;;;0.32;0.30;;;;;;;4.61;100.00;98342.00;5011399;28;20129;-83
2022/02/16 06:28:05;;;;;;;1.25;0.70;;;;;;;4.59;100.00;98324.34;5011027;28;20050;-83
2022/02/16 06:30:32;;;;;;;2.80;0.80;;;;;;;4.51;100.00;98308.19;5009686;28;20045;-83
2022/02/16 06:33:00;;;;;;;0.40;0.40;;;;;;;4.65;100.00;98330.91;5008429;28;20519;-83
2022/02/16 06:35:27;;;;;;;4.50;0.77;;;;;;;4.54;100.00;98319.47;5010549;28;20077;-84
2022/02/16 06:37:56;;;;;;;0.43;0.43;;;;;;;4.65;100.00;98312.06;5011820;28;20485;-84
2022/02/16 06:40:26;;;;;;;0.50;0.50;;;;;;;4.70;100.00;98329.41;5013492;28;20128;-83
2022/02/16 06:42:53;;;;;;;0.47;0.47;;;;;;;4.68;100.00;98325.19;5013175;28;20057;-83
2022/02/16 06:45:20;;;;;;;0.88;0.60;;;;;;;4.64;100.00;98319.31;5012222;28;20048;-83
2022/02/16 06:47:46;;;;;;;0.95;0.40;;;;;;;4.73;100.00;98331.75;5013464;28;20057;-83
2022/02/16 06:50:18;;;;;;;1.88;0.60;;;;;;;4.78;100.00;98334.78;5011152;28;20046;-83
2022/02/16 06:52:44;;;;;;;0.80;0.60;;;;;;;4.78;100.00;98320.47;5012686;28;20100;-83
2022/02/16 06:55:11;;;;;;;0.65;0.50;;;;;;;4.66;100.00;98311.06;5011341;28;20108;-84
2022/02/16 06:57:41;;;;;;;0.40;0.40;;;;;;;4.77;100.00;98322.34;5007052;28;20060;-84
2022/02/16 07:00:09;;;;;;;0.88;0.77;;;;;;;4.72;100.00;98305.84;5012715;28;20057;-83
2022/02/16 07:02:42;;;;;;;3.92;0.70;;;;;;;4.82;100.00;98329.06;5013279;28;20119;-84
2022/02/16 07:05:09;;;;;;;2.83;0.80;;;;;;;4.69;100.00;98308.03;5011514;28;20553;-84
2022/02/16 07:07:39;;;;;;;1.40;0.65;;;;;;;4.83;100.00;98334.28;5012646;28;20129;-83
2022/02/16 07:10:07;;;;;;;0.55;0.47;;;;;;;4.82;100.00;98312.91;5012484;28;20053;-83
2022/02/16 07:12:37;;;;;;;7.18;1.02;;;;;;;4.75;100.00;98304.66;5010893;28;20089;-83
2022/02/16 07:15:11;;;;;;;2.45;0.60;;;;;;;4.86;100.00;98316.94;5009152;28;20149;-82
2022/02/16 07:17:39;;;;;;;2.75;0.43;;;;;;;4.88;100.00;98315.78;5009710;28;20042;-82
2022/02/16 07:20:11;;;;;;;8.98;1.42;;;;;;;4.86;100.00;98303.47;5011736;28;20054;-82
2022/02/16 07:22:43;;;;;;;4.90;1.55;;;;;;;4.91;100.00;98293.88;5009498;28;20085;-84
2022/02/16 07:25:11;;;;;;;9.13;1.63;;;;;;;4.89;100.00;98292.34;5010333;28;20054;-84
2022/02/16 07:27:38;;;;;;;8.10;2.00;;;;;;;4.93;100.00;98299.94;5012362;28;20054;-85
2022/02/16 07:30:09;;;;;;;0.88;0.50;;;;;;;4.96;100.00;98299.59;5013041;28;20099;-85
2022/02/16 07:32:38;;;;;;;7.63;1.55;;;;;;;4.90;100.00;98305.66;5012854;28;20054;-83
2022/02/16 07:35:05;;;;;;;0.77;0.70;;;;;;;4.96;100.00;98304.16;5012277;28;20049;-84
2022/02/16 07:37:32;;;;;;;4.47;0.80;;;;;;;4.94;100.00;98309.69;5013179;28;20049;-84
2022/02/16 07:40:00;;;;;;;1.13;0.60;;;;;;;4.76;100.00;98268.66;5013082;28;20133;-84
2022/02/16 07:42:28;;;;;;;3.20;0.52;;;;;;;4.85;100.00;98286.47;5012211;28;20046;-83
2022/02/16 07:44:55;;;;;;;13.45;1.88;;;;;;;4.78;100.00;98267.47;5011419;28;20054;-83
2022/02/16 07:47:21;;;;;;;1.50;0.50;;;;;;;4.82;100.00;98272.50;5009864;28;20056;-83
2022/02/16 07:49:48;;;;;;;3.50;0.77;;;;;;;4.78;100.00;98261.25;5009226;28;20459;-83
2022/02/16 07:52:15;;;;;;;6.43;0.68;;;;;;;4.82;100.00;98278.75;5010024;28;20060;-83
2022/02/16 07:54:44;;;;;;;1.23;0.70;;;;;;;4.90;100.00;98273.34;5007996;28;20050;-83
2022/02/16 07:57:12;;;;;;;3.60;0.70;;;;;;;4.95;100.00;98273.69;5005564;28;20084;-83
2022/02/16 07:59:39;;;;;;;1.60;0.70;;;;;;;4.97;100.00;98281.59;5009971;28;20050;-82
2022/02/16 08:02:06;;;;;;;8.88;1.02;;;;;;;4.91;100.00;98280.41;5008881;28;20050;-82
2022/02/16 08:04:33;;;;;;;6.93;0.68;;;;;;;4.89;100.00;98268.13;5004818;28;20041;-83
2022/02/16 08:07:00;;;;;;;0.65;0.50;;;;;;;5.03;100.00;98272.81;5010994;28;20569;-83
2022/02/16 08:09:27;;;;;;;0.85;0.50;;;;;;;4.92;100.00;98254.31;4999280;28;20056;-83
2022/02/16 08:11:53;;;;;;;9.00;5.93;;;;;;;4.92;100.00;98244.41;5013054;28;20117;-81
2022/02/16 08:14:26;;;;;;;6.10;2.92;;;;;;;4.93;100.00;98264.09;5011532;28;20062;-82
2022/02/16 08:16:55;;;;;;;2.75;0.70;;;;;;;4.96;100.00;98266.44;5012197;28;20553;-83
2022/02/16 08:19:23;;;;;;;2.10;0.70;;;;;;;4.99;100.00;98276.03;5009784;28;20088;-83
2022/02/16 08:21:55;;;;;;;2.80;0.82;;;;;;;5.03;100.00;98272.81;5013075;28;20136;-83
2022/02/16 08:24:22;;;;;;;0.70;0.70;;;;;;;5.01;100.00;98242.50;5010892;28;20057;-83
2022/02/16 08:26:49;;;;;;;1.48;0.85;;;;;;;4.96;100.00;98247.56;5012966;28;20046;-83
2022/02/16 08:29:16;;;;;;;1.05;0.95;;;;;;;5.01;100.00;98255.16;5012055;28;20137;-83
2022/02/16 08:31:45;;;;;;;3.45;1.35;;;;;;;5.04;100.00;98252.09;5010741;28;20060;-84
2022/02/16 08:34:15;;;;;;;3.67;1.10;;;;;;;4.95;100.00;98221.66;5004425;28;20509;-91
2022/02/16 08:36:42;;;;;;;14.18;2.60;;;;;;;4.94;100.00;98226.19;5015632;28;20038;-84
2022/02/16 08:39:08;;;;;;;0.65;0.65;;;;;;;4.84;100.00;98225.53;5015551;28;20449;-83
2022/02/16 08:41:35;;;;;;;3.22;0.63;;;;;;;4.94;100.00;98225.38;5014778;28;21039;-82
2022/02/16 08:44:02;;;;;;;3.45;0.70;;;;;;;4.90;100.00;98214.09;5010046;28;20105;-85
2022/02/16 08:46:29;;;;;;;2.00;0.95;;;;;;;4.89;100.00;98223.19;5014018;28;20054;-84
2022/02/16 08:49:01;;;;;;;10.20;1.08;;;;;;;4.87;100.00;98192.88;5011360;28;20052;-84
2022/02/16 08:51:28;;;;;;;8.65;1.95;;;;;;;4.99;100.00;98198.75;5010146;28;20540;-84
2022/02/16 08:53:55;;;;;;;2.85;0.80;;;;;;;5.09;100.00;98199.41;5011841;28;20077;-85
2022/02/16 08:56:22;;;;;;;9.93;2.40;;;;;;;5.08;100.00;98207.66;5013111;28;20405;-85
2022/02/16 08:58:49;;;;;;;4.45;1.63;;;;;;;4.93;100.00;98185.97;5013806;28;20116;-85
2022/02/16 09:01:16;;;;;;;6.53;1.40;;;;;;;5.06;100.00;98202.44;5011002;28;20556;-85
2022/02/16 09:03:42;;;;;;;0.60;0.60;;;;;;;5.05;100.00;98186.44;5007913;28;20149;-86
2022/02/16 09:06:11;;;;;;;0.60;0.60;;;;;;;5.18;100.00;98194.81;5001601;28;20049;-85
2022/02/16 09:08:38;;;;;;;4.97;3.83;;;;;;;5.26;100.00;98194.78;5010094;28;20045;-85
2022/02/16 09:11:05;;;;;;;5.85;0.70;;;;;;;5.24;100.00;98182.47;5006340;28;20085;-86
2022/02/16 09:13:31;;;;;;;13.45;5.05;;;;;;;5.20;100.00;98176.63;5011039;28;20085;-84
2022/02/16 09:15:58;;;;;;;1.58;0.80;;;;;;;5.35;100.00;98178.59;5010701;28;20093;-84
2022/02/16 09:18:25;;;;;;;1.40;0.70;;;;;;;5.32;100.00;98171.69;4998306;28;20487;-83
2022/02/16 09:20:52;;;;;;;2.40;0.80;;;;;;;5.27;100.00;98171.38;5010744;28;20053;-84
2022/02/16 09:23:20;;;;;;;3.03;2.20;;;;;;;5.32;100.00;98160.91;5010398;28;20572;-84
2022/02/16 09:25:47;;;;;;;2.22;1.55;;;;;;;5.36;100.00;98161.38;5004350;28;20058;-84
2022/02/16 09:28:13;;;;;;;1.65;0.80;;;;;;;5.52;100.00;98164.00;5008647;28;20597;-83
2022/02/16 09:30:40;;;;;;;0.68;0.60;;;;;;;5.49;100.00;98151.72;5010573;28;20075;-83
2022/02/16 09:33:07;;;;;;;0.45;0.45;;;;;;;5.56;100.00;98162.63;5009959;28;20085;-83
2022/02/16 09:35:33;;;;;;;2.78;0.60;;;;;;;5.59;100.00;98159.56;5009217;28;20149;-84
2022/02/16 09:38:00;;;;;;;2.97;0.80;;;;;;;5.62;100.00;98144.91;5010171;28;20515;-84
2022/02/16 09:40:31;;;;;;;2.60;0.73;;;;;;;5.78;100.00;98162.81;5010133;28;20137;-84
2022/02/16 09:43:01;;;;;;;1.17;0.80;;;;;;;5.82;100.00;98159.59;5008235;28;20058;-84
2022/02/16 09:45:30;;;;;;;4.50;1.27;;;;;;;5.82;100.00;98154.19;5006951;28;20060;-84
2022/02/16 09:48:00;;;;;;;10.98;5.10;;;;;;;5.87;100.00;98153.66;5010537;28;20639;-83
2022/02/16 09:50:27;;;;;;;;;;;;;;;5.93;100.00;98158.34;5010793;28;20133;-84
2022/02/16 09:52:53;;;;;;;1.10;0.70;;;;;;;5.87;100.00;98145.56;5012374;28;20004;-82
2022/02/16 09:55:23;;;;;;;2.20;1.00;;;;;;;5.77;100.00;98143.09;5008820;28;20386;-83
2022/02/16 09:57:52;;;;;;;3.55;0.63;;;;;;;5.80;100.00;98137.34;5010295;28;20046;-83
2022/02/16 10:00:18;;;;;;;2.67;0.57;;;;;;;5.83;100.00;98139.69;5006170;28;20077;-84
2022/02/16 10:02:46;;;;;;;0.90;0.60;;;;;;;5.78;100.00;98122.38;5009976;28;20116;-83
2022/02/16 10:05:15;;;;;;;3.95;0.90;;;;;;;5.71;100.00;98116.03;5008101;28;20045;-83
2022/02/16 10:07:43;;;;;;;0.60;0.60;;;;;;;5.75;100.00;98133.50;5010128;28;20046;-83
2022/02/16 10:10:19;;;;;;;1.77;1.33;;;;;;;5.76;100.00;98135.19;5008708;28;20121;-83
2022/02/16 10:12:50;;;;;;;2.50;0.90;;;;;;;5.76;100.00;98132.50;5007876;28;20124;-83
2022/02/16 10:15:18;;;;;;;;;;;;;;;5.83;100.00;98147.78;5009823;28;20050;-83
2022/02/16 10:17:45;;;;;;;3.65;1.00;;;;;;;5.85;100.00;98145.72;5006418;28;19975;-83
2022/02/16 10:20:16;;;;;;;2.47;1.05;;;;;;;5.80;100.00;98129.25;5002424;28;20054;-82
2022/02/16 10:22:45;;;;;;;3.65;0.90;;;;;;;5.94;100.00;98141.13;5009772;28;20429;-83
2022/02/16 10:25:17;;;;;;;1.55;0.90;;;;;;;6.00;100.00;98143.13;5008535;28;20084;-82
2022/02/16 10:28:06;;;;;;;5.82;0.77;;;;;;;6.09;100.00;98145.78;5009348;28;20041;-83
2022/02/16 10:30:36;;;;;;;2.47;1.02;;;;;;;6.07;100.00;98142.41;5000753;28;20473;-82
2022/02/16 10:33:21;;;;;;;5.57;0.52;;;;;;;6.18;100.00;98134.72;5007091;28;20145;-83
2022/02/16 10:35:49;;;;;;;0.65;0.57;;;;;;;6.24;100.00;98125.06;5010094;28;20547;-82
2022/02/16 10:38:16;;;;;;;0.60;0.60;;;;;;;6.23;100.00;98109.06;5009131;28;20046;-83
2022/02/16 10:40:43;;;;;;;4.10;0.80;;;;;;;6.22;100.00;98094.72;5005985;28;20567;-82
2022/02/16 10:43:09;;;;;;;1.13;0.60;;;;;;;6.38;100.00;98094.56;5008297;28;20169;-83
2022/02/16 10:45:48;;;;;;;0.63;0.60;;;;;;;6.44;100.00;98097.53;5009273;28;20065;-83
2022/02/16 10:48:21;;;;;;;12.93;1.85;;;;;;;6.40;100.00;98094.38;5005679;28;20136;-83
2022/02/16 10:50:49;;;;;;;49.70;3.20;;;;;;;6.38;100.00;98086.47;5004243;28;20050;-82
2022/02/16 10:53:26;;;;;;;2.58;0.70;;;;;;;6.43;100.00;98087.75;5008561;28;20479;-83
2022/02/16 10:55:54;;;;;;;13.73;1.58;;;;;;;6.32;100.00;98078.25;5008463;28;20056;-83
2022/02/16 10:58:22;;;;;;;4.30;0.57;;;;;;;6.45;100.00;98073.06;5007065;28;20057;-83
2022/02/16 11:00:52;;;;;;;1.13;0.50;;;;;;;6.44;100.00;98067.84;5009436;28;20566;-83
2022/02/16 11:03:26;;;;;;;1.13;0.52;;;;;;;6.47;100.00;98060.19;4995624;28;20065;-84
2022/02/16 11:05:54;;;;;;;4.25;1.20;;;;;;;6.54;100.00;98071.94;4989686;28;20057;-82
2022/02/16 11:08:23;;;;;;;1.55;0.73;;;;;;;6.58;100.00;98071.56;4998705;28;20481;-83
2022/02/16 11:10:50;;;;;;;1.05;0.73;;;;;;;6.70;100.00;98076.31;5008086;28;20140;-84
2022/02/16 11:13:21;;;;;;;8.02;1.08;;;;;;;6.68;100.00;98059.44;5000760;28;20407;-84
2022/02/16 11:15:48;;;;;;;0.40;0.32;;;;;;;6.73;100.00;98059.75;5008714;28;20074;-84
2022/02/16 11:18:18;;;;;;;0.30;0.30;;;;;;;6.81;100.00;98074.19;4993980;28;20120;-84
2022/02/16 11:20:45;;;;;;;0.70;0.68;;;;;;;6.73;100.00;98051.66;4991919;28;20117;-84
2022/02/16 11:23:13;;;;;;;0.30;0.30;;;;;;;6.83;100.00;98066.72;5006216;28;20489;-84
2022/02/16 11:25:41;;;;;;;0.55;0.30;;;;;;;6.83;100.00;98043.22;4988934;28;20105;-84
2022/02/16 11:28:12;;;;;;;0.28;0.20;;;;;;;6.81;100.00;98033.66;5006079;28;20056;-84
2022/02/16 11:30:41;;;;;;;0.35;0.30;;;;;;;6.98;100.00;98040.50;5008529;28;20054;-84
2022/02/16 11:33:18;;;;;;;0.30;0.30;;;;;;;7.07;100.00;98044.78;5007466;28;20084;-84
2022/02/16 11:35:51;;;;;;;0.30;0.30;;;;;;;6.99;100.00;98034.09;4995648;28;20124;-84
2022/02/16 11:38:20;;;;;;;0.35;0.35;;;;;;;7.04;100.00;98030.81;5008150;28;20089;-84
2022/02/16 11:40:49;;;;;;;0.43;0.43;;;;;;;7.23;100.00;98042.88;5009923;28;20046;-84